PWSweather.com
Personal Weather Stations
Station Observations
WAIROAHB
Wairoa, Northern Hawkes Bay -NZ 4108

WairoaNorthern Hawkes Bay -NZ 4108

Lat: -39.04516934, Lon: 177.4263989

Elevation: 156

Station Type: WS3083

http://wairoa.net/weather/index.htm

High Low Average
Temperature 73.8°F23.2°C 55.9°F13.3°C 65.5°F18.6°C
Dew Point 62.1°F16.7°C 51.7°F10.9°C 57.7°F14.3°C
Winds 10.7 mph 17.2 kmh Calm Calm 3.0 mph SE4.8 kmh SE
Wind Gusts 18.3 mph29.5 kmh -- 7.0 mph11.3 kmh
Humidity 99% 49% 78%
Pressure 29.73 in1006.8 mb 29.53 in1000.0 mb -
Precipitation 0.01 in0.3 mm - -
Hour Temp Dew Point Humidity Winds Wind Gusts Pressure Precip Precip Rate Daily Precip Total
12:00 AM 59.0°F15.0°C 58.7°F14.8°C 99% Calm Calm -- 29.54 in1000.3 mb 0.00 in0.0 mm 0.00 in0.0 mm 0.00 in0.0 mm
12:10 AM 59.2°F15.1°C 58.9°F14.9°C 99% 1.6 mph NNW2.6 kmh NNW 3.1 mph5.0 kmh 29.54 in1000.3 mb 0.00 in0.0 mm 0.00 in0.0 mm 0.00 in0.0 mm
12:20 AM 59.0°F15.0°C 58.7°F14.8°C 99% Calm Calm 3.1 mph5.0 kmh 29.53 in1000.0 mb 0.00 in0.0 mm 0.00 in0.0 mm 0.00 in0.0 mm
12:30 AM 59.0°F15.0°C 58.7°F14.8°C 99% 1.6 mph NW2.6 kmh NW 3.8 mph6.1 kmh 29.54 in1000.3 mb 0.00 in0.0 mm 0.00 in0.0 mm 0.00 in0.0 mm
12:40 AM 59.0°F15.0°C 58.7°F14.8°C 99% 2.2 mph NNW3.5 kmh NNW 4.5 mph7.2 kmh 29.54 in1000.3 mb 0.00 in0.0 mm 0.00 in0.0 mm 0.00 in0.0 mm
12:50 AM 59.0°F15.0°C 58.7°F14.8°C 99% 3.1 mph NNW5.0 kmh NNW 5.4 mph8.7 kmh 29.54 in1000.3 mb 0.00 in0.0 mm 0.00 in0.0 mm 0.00 in0.0 mm
01:00 AM 59.0°F15.0°C 58.7°F14.8°C 99% 1.6 mph NNW2.6 kmh NNW 6.0 mph9.7 kmh 29.54 in1000.3 mb 0.00 in0.0 mm 0.00 in0.0 mm 0.00 in0.0 mm
01:10 AM 58.8°F14.9°C 58.6°F14.8°C 99% 3.1 mph N5.0 kmh N 5.4 mph8.7 kmh 29.53 in1000.0 mb 0.00 in0.0 mm 0.00 in0.0 mm 0.00 in0.0 mm
01:20 AM 58.8°F14.9°C 58.6°F14.8°C 99% 3.1 mph NNW5.0 kmh NNW 5.4 mph8.7 kmh 29.53 in1000.0 mb 0.00 in0.0 mm 0.00 in0.0 mm 0.00 in0.0 mm
01:30 AM 58.8°F14.9°C 58.6°F14.8°C 99% 3.1 mph NW5.0 kmh NW 4.5 mph7.2 kmh 29.53 in1000.0 mb 0.00 in0.0 mm 0.00 in0.0 mm 0.00 in0.0 mm
01:40 AM 58.8°F14.9°C 58.6°F14.8°C 99% 2.2 mph NW3.5 kmh NW 5.4 mph8.7 kmh 29.53 in1000.0 mb 0.00 in0.0 mm 0.00 in0.0 mm 0.00 in0.0 mm
01:50 AM 58.3°F14.6°C 58.0°F14.4°C 99% 1.6 mph NNW2.6 kmh NNW 4.5 mph7.2 kmh 29.53 in1000.0 mb 0.00 in0.0 mm 0.00 in0.0 mm 0.00 in0.0 mm
02:00 AM 58.3°F14.6°C 58.0°F14.4°C 99% Calm Calm 3.1 mph5.0 kmh 29.53 in1000.0 mb 0.00 in0.0 mm 0.00 in0.0 mm 0.00 in0.0 mm
02:10 AM 58.3°F14.6°C 58.0°F14.4°C 99% 1.6 mph NW2.6 kmh NW 3.8 mph6.1 kmh 29.53 in1000.0 mb 0.00 in0.0 mm 0.00 in0.0 mm 0.00 in0.0 mm
02:20 AM 58.3°F14.6°C 58.0°F14.4°C 99% 2.2 mph N3.5 kmh N 5.4 mph8.7 kmh 29.53 in1000.0 mb 0.00 in0.0 mm 0.00 in0.0 mm 0.00 in0.0 mm
02:30 AM 58.3°F14.6°C 58.0°F14.4°C 99% Calm Calm 3.1 mph5.0 kmh 29.53 in1000.0 mb 0.00 in0.0 mm 0.00 in0.0 mm 0.00 in0.0 mm
02:40 AM 58.3°F14.6°C 58.0°F14.4°C 99% Calm Calm -- 29.53 in1000.0 mb 0.00 in0.0 mm 0.00 in0.0 mm 0.00 in0.0 mm
02:50 AM 58.3°F14.6°C 58.0°F14.4°C 99% Calm Calm -- 29.53 in1000.0 mb 0.00 in0.0 mm 0.00 in0.0 mm 0.00 in0.0 mm
03:00 AM 58.3°F14.6°C 58.0°F14.4°C 99% Calm Calm -- 29.54 in1000.3 mb 0.00 in0.0 mm 0.00 in0.0 mm 0.00 in0.0 mm
03:10 AM 58.3°F14.6°C 58.0°F14.4°C 99% Calm Calm -- 29.54 in1000.3 mb 0.00 in0.0 mm 0.00 in0.0 mm 0.00 in0.0 mm
03:20 AM 58.3°F14.6°C 58.0°F14.4°C 99% Calm Calm -- 29.54 in1000.3 mb 0.00 in0.0 mm 0.00 in0.0 mm 0.00 in0.0 mm
03:30 AM 58.3°F14.6°C 58.0°F14.4°C 99% Calm Calm -- 29.55 in1000.7 mb 0.00 in0.0 mm 0.00 in0.0 mm 0.00 in0.0 mm
03:40 AM 58.3°F14.6°C 58.0°F14.4°C 99% Calm Calm -- 29.54 in1000.3 mb 0.00 in0.0 mm 0.00 in0.0 mm 0.00 in0.0 mm
03:50 AM 57.7°F14.3°C 57.5°F14.2°C 99% Calm Calm -- 29.54 in1000.3 mb 0.00 in0.0 mm 0.00 in0.0 mm 0.00 in0.0 mm
04:00 AM 57.2°F14.0°C 56.9°F13.8°C 99% Calm Calm -- 29.54 in1000.3 mb 0.00 in0.0 mm 0.00 in0.0 mm 0.00 in0.0 mm
04:10 AM 57.0°F13.9°C 56.8°F13.8°C 99% Calm Calm -- 29.55 in1000.7 mb 0.00 in0.0 mm 0.00 in0.0 mm 0.00 in0.0 mm
04:20 AM 56.7°F13.7°C 56.4°F13.6°C 99% Calm Calm -- 29.56 in1001.0 mb 0.00 in0.0 mm 0.00 in0.0 mm 0.00 in0.0 mm
04:30 AM 56.5°F13.6°C 56.2°F13.4°C 99% Calm Calm 3.1 mph5.0 kmh 29.56 in1001.0 mb 0.00 in0.0 mm 0.00 in0.0 mm 0.00 in0.0 mm
04:40 AM 56.3°F13.5°C 56.0°F13.3°C 99% 1.6 mph NW2.6 kmh NW 3.8 mph6.1 kmh 29.57 in1001.4 mb 0.00 in0.0 mm 0.00 in0.0 mm 0.00 in0.0 mm
04:50 AM 55.9°F13.3°C 55.7°F13.2°C 99% Calm Calm 3.1 mph5.0 kmh 29.57 in1001.4 mb 0.00 in0.0 mm 0.00 in0.0 mm 0.00 in0.0 mm
05:00 AM 56.3°F13.5°C 56.0°F13.3°C 99% Calm Calm 3.1 mph5.0 kmh 29.57 in1001.4 mb 0.00 in0.0 mm 0.00 in0.0 mm 0.00 in0.0 mm
05:10 AM 56.3°F13.5°C 56.0°F13.3°C 99% Calm Calm 0.7 mph1.1 kmh 29.57 in1001.4 mb 0.00 in0.0 mm 0.00 in0.0 mm 0.00 in0.0 mm
05:20 AM 56.3°F13.5°C 56.0°F13.3°C 99% Calm Calm 3.1 mph5.0 kmh 29.58 in1001.7 mb 0.00 in0.0 mm 0.00 in0.0 mm 0.00 in0.0 mm
05:30 AM 56.8°F13.8°C 56.6°F13.7°C 99% Calm Calm -- 29.58 in1001.7 mb 0.00 in0.0 mm 0.00 in0.0 mm 0.00 in0.0 mm
05:40 AM 58.3°F14.6°C 58.0°F14.4°C 99% Calm Calm -- 29.59 in1002.0 mb 0.00 in0.0 mm 0.00 in0.0 mm 0.00 in0.0 mm
05:50 AM 59.2°F15.1°C 58.9°F14.9°C 99% 2.2 mph NW3.5 kmh NW 3.8 mph6.1 kmh 29.59 in1002.0 mb 0.00 in0.0 mm 0.00 in0.0 mm 0.00 in0.0 mm
06:00 AM 59.4°F15.2°C 58.5°F14.7°C 97% 1.6 mph NNW2.6 kmh NNW 4.5 mph7.2 kmh 29.59 in1002.0 mb 0.00 in0.0 mm 0.00 in0.0 mm 0.00 in0.0 mm
06:10 AM 61.5°F16.4°C 59.8°F15.4°C 94% 2.2 mph NNE3.5 kmh NNE 3.8 mph6.1 kmh 29.59 in1002.0 mb 0.00 in0.0 mm 0.00 in0.0 mm 0.00 in0.0 mm
06:20 AM 62.6°F17.0°C 58.4°F14.7°C 86% 0.7 mph N1.1 kmh N 3.8 mph6.1 kmh 29.59 in1002.0 mb 0.00 in0.0 mm 0.00 in0.0 mm 0.00 in0.0 mm
06:30 AM 64.0°F17.8°C 58.1°F14.5°C 81% 2.2 mph N3.5 kmh N 3.8 mph6.1 kmh 29.60 in1002.4 mb 0.00 in0.0 mm 0.00 in0.0 mm 0.00 in0.0 mm
06:40 AM 64.4°F18.0°C 57.1°F13.9°C 77% 3.8 mph N6.1 kmh N 5.4 mph8.7 kmh 29.60 in1002.4 mb 0.00 in0.0 mm 0.00 in0.0 mm 0.00 in0.0 mm
06:50 AM 65.3°F18.5°C 57.2°F14.0°C 75% 3.1 mph N5.0 kmh N 6.0 mph9.7 kmh 29.60 in1002.4 mb 0.00 in0.0 mm 0.00 in0.0 mm 0.00 in0.0 mm
07:00 AM 66.7°F19.3°C 55.9°F13.3°C 68% 3.8 mph N6.1 kmh N 4.5 mph7.2 kmh 29.61 in1002.7 mb 0.00 in0.0 mm 0.00 in0.0 mm 0.00 in0.0 mm
07:10 AM 66.9°F19.4°C 56.0°F13.3°C 68% 4.5 mph N7.2 kmh N 6.0 mph9.7 kmh 29.62 in1003.0 mb 0.00 in0.0 mm 0.00 in0.0 mm 0.00 in0.0 mm
07:20 AM 64.9°F18.3°C 56.5°F13.6°C 74% 2.2 mph NNW3.5 kmh NNW 6.0 mph9.7 kmh 29.62 in1003.0 mb 0.00 in0.0 mm 0.00 in0.0 mm 0.00 in0.0 mm
07:30 AM 66.6°F19.2°C 58.4°F14.7°C 75% 1.6 mph N2.6 kmh N 6.0 mph9.7 kmh 29.62 in1003.0 mb 0.00 in0.0 mm 0.00 in0.0 mm 0.00 in0.0 mm
07:40 AM 68.5°F20.3°C 58.4°F14.7°C 70% 4.5 mph NNW7.2 kmh NNW 8.3 mph13.4 kmh 29.63 in1003.4 mb 0.00 in0.0 mm 0.00 in0.0 mm 0.00 in0.0 mm
07:50 AM 66.7°F19.3°C 54.6°F12.6°C 65% 2.2 mph NW3.5 kmh NW 8.3 mph13.4 kmh 29.63 in1003.4 mb 0.00 in0.0 mm 0.00 in0.0 mm 0.00 in0.0 mm
08:00 AM 68.7°F20.4°C 56.1°F13.4°C 64% 3.8 mph NW6.1 kmh NW 5.4 mph8.7 kmh 29.64 in1003.7 mb 0.00 in0.0 mm 0.00 in0.0 mm 0.00 in0.0 mm
08:10 AM 70.0°F21.1°C 55.5°F13.1°C 60% 4.5 mph NW7.2 kmh NW 6.9 mph11.1 kmh 29.64 in1003.7 mb 0.00 in0.0 mm 0.00 in0.0 mm 0.00 in0.0 mm
08:20 AM 70.9°F21.6°C 53.4°F11.9°C 54% Calm Calm 7.6 mph12.2 kmh 29.64 in1003.7 mb 0.01 in0.3 mm 0.06 in1.5 mm 0.01 in0.3 mm
08:30 AM 72.3°F22.4°C 53.2°F11.8°C 51% 3.1 mph NW5.0 kmh NW 7.6 mph12.2 kmh 29.64 in1003.7 mb 0.01 in0.3 mm 0.00 in0.0 mm 0.01 in0.3 mm
08:40 AM 70.7°F21.5°C 51.7°F10.9°C 51% 6.0 mph NW9.7 kmh NW 11.4 mph18.3 kmh 29.64 in1003.7 mb 0.01 in0.3 mm 0.00 in0.0 mm 0.01 in0.3 mm
08:50 AM 70.3°F21.3°C 52.4°F11.3°C 53% 5.4 mph WNW8.7 kmh WNW 13.6 mph21.9 kmh 29.65 in1004.1 mb 0.01 in0.3 mm 0.00 in0.0 mm 0.01 in0.3 mm
09:00 AM 71.1°F21.7°C 53.1°F11.7°C 53% 4.5 mph WSW7.2 kmh WSW 18.3 mph29.5 kmh 29.65 in1004.1 mb 0.01 in0.3 mm 0.00 in0.0 mm 0.01 in0.3 mm
09:10 AM 72.0°F22.2°C 51.8°F11.0°C 49% 4.5 mph WSW7.2 kmh WSW 9.8 mph15.8 kmh 29.65 in1004.1 mb 0.01 in0.3 mm 0.00 in0.0 mm 0.01 in0.3 mm
09:20 AM 71.2°F21.8°C 52.7°F11.5°C 52% 3.8 mph WSW6.1 kmh WSW 11.4 mph18.3 kmh 29.65 in1004.1 mb 0.00 in0.0 mm 0.00 in0.0 mm 0.01 in0.3 mm
09:30 AM 71.2°F21.8°C 53.3°F11.8°C 53% 3.8 mph WSW6.1 kmh WSW 11.4 mph18.3 kmh 29.65 in1004.1 mb 0.00 in0.0 mm 0.00 in0.0 mm 0.01 in0.3 mm
09:40 AM 70.3°F21.3°C 52.9°F11.6°C 54% 6.9 mph SW11.1 kmh SW 11.4 mph18.3 kmh 29.66 in1004.4 mb 0.00 in0.0 mm 0.00 in0.0 mm 0.01 in0.3 mm
09:50 AM 70.9°F21.6°C 53.9°F12.2°C 55% 7.6 mph WSW12.2 kmh WSW 13.0 mph20.9 kmh 29.65 in1004.1 mb 0.00 in0.0 mm 0.00 in0.0 mm 0.01 in0.3 mm
10:00 AM 71.6°F22.0°C 52.5°F11.4°C 51% 4.5 mph WSW7.2 kmh WSW 13.0 mph20.9 kmh 29.66 in1004.4 mb 0.00 in0.0 mm 0.00 in0.0 mm 0.01 in0.3 mm
10:10 AM 71.4°F21.9°C 52.9°F11.6°C 52% 6.9 mph SW11.1 kmh SW 13.6 mph21.9 kmh 29.65 in1004.1 mb 0.00 in0.0 mm 0.00 in0.0 mm 0.01 in0.3 mm
10:20 AM 71.4°F21.9°C 52.9°F11.6°C 52% 8.3 mph NW13.4 kmh NW 12.1 mph19.5 kmh 29.66 in1004.4 mb 0.00 in0.0 mm 0.00 in0.0 mm 0.01 in0.3 mm
10:30 AM 72.0°F22.2°C 52.9°F11.6°C 51% 6.0 mph WSW9.7 kmh WSW 12.1 mph19.5 kmh 29.66 in1004.4 mb 0.00 in0.0 mm 0.00 in0.0 mm 0.01 in0.3 mm
10:40 AM 71.2°F21.8°C 52.7°F11.5°C 52% 7.6 mph WSW12.2 kmh WSW 13.0 mph20.9 kmh 29.66 in1004.4 mb 0.00 in0.0 mm 0.00 in0.0 mm 0.01 in0.3 mm
10:50 AM 71.8°F22.1°C 53.2°F11.8°C 52% 8.3 mph SW13.4 kmh SW 12.1 mph19.5 kmh 29.67 in1004.7 mb 0.00 in0.0 mm 0.00 in0.0 mm 0.01 in0.3 mm
11:00 AM 71.2°F21.8°C 52.7°F11.5°C 52% 7.6 mph WSW12.2 kmh WSW 13.0 mph20.9 kmh 29.67 in1004.7 mb 0.00 in0.0 mm 0.00 in0.0 mm 0.01 in0.3 mm
11:10 AM 71.6°F22.0°C 53.6°F12.0°C 53% 8.3 mph SW13.4 kmh SW 13.0 mph20.9 kmh 29.67 in1004.7 mb 0.00 in0.0 mm 0.00 in0.0 mm 0.01 in0.3 mm
11:20 AM 71.2°F21.8°C 56.7°F13.7°C 60% 9.8 mph SE15.8 kmh SE 15.2 mph24.5 kmh 29.67 in1004.7 mb 0.00 in0.0 mm 0.00 in0.0 mm 0.01 in0.3 mm
11:30 AM 70.7°F21.5°C 60.1°F15.6°C 69% 10.7 mph NNW17.2 kmh NNW 16.8 mph27.0 kmh 29.68 in1005.1 mb 0.00 in0.0 mm 0.00 in0.0 mm 0.01 in0.3 mm
11:40 AM 69.6°F20.9°C 62.1°F16.7°C 77% 7.6 mph SE12.2 kmh SE 17.4 mph28.0 kmh 29.68 in1005.1 mb 0.00 in0.0 mm 0.00 in0.0 mm 0.01 in0.3 mm
11:50 AM 68.9°F20.5°C 61.4°F16.3°C 77% 8.3 mph W13.4 kmh W 13.6 mph21.9 kmh 29.68 in1005.1 mb 0.00 in0.0 mm 0.00 in0.0 mm 0.01 in0.3 mm
12:00 PM 69.1°F20.6°C 61.6°F16.4°C 77% 6.9 mph SE11.1 kmh SE 14.5 mph23.3 kmh 29.68 in1005.1 mb 0.00 in0.0 mm 0.00 in0.0 mm 0.01 in0.3 mm
12:10 PM 68.5°F20.3°C 60.7°F15.9°C 76% 5.4 mph SE8.7 kmh SE 15.2 mph24.5 kmh 29.68 in1005.1 mb 0.00 in0.0 mm 0.00 in0.0 mm 0.01 in0.3 mm
12:20 PM 68.9°F20.5°C 60.7°F15.9°C 75% 7.6 mph SE12.2 kmh SE 13.6 mph21.9 kmh 29.68 in1005.1 mb 0.00 in0.0 mm 0.00 in0.0 mm 0.01 in0.3 mm
12:30 PM 69.3°F20.7°C 61.0°F16.1°C 75% 6.0 mph SE9.7 kmh SE 14.5 mph23.3 kmh 29.68 in1005.1 mb 0.00 in0.0 mm 0.00 in0.0 mm 0.01 in0.3 mm
12:40 PM 69.8°F21.0°C 61.2°F16.2°C 74% 5.4 mph SE8.7 kmh SE 14.5 mph23.3 kmh 29.68 in1005.1 mb 0.00 in0.0 mm 0.00 in0.0 mm 0.01 in0.3 mm
12:50 PM 70.2°F21.2°C 60.7°F15.9°C 72% 6.0 mph ESE9.7 kmh ESE 10.7 mph17.2 kmh 29.68 in1005.1 mb 0.00 in0.0 mm 0.00 in0.0 mm 0.01 in0.3 mm
01:00 PM 69.6°F20.9°C 61.0°F16.1°C 74% 9.2 mph SE14.8 kmh SE 13.6 mph21.9 kmh 29.68 in1005.1 mb 0.00 in0.0 mm 0.00 in0.0 mm 0.01 in0.3 mm
01:10 PM 69.6°F20.9°C 60.6°F15.9°C 73% 6.0 mph SE9.7 kmh SE 13.6 mph21.9 kmh 29.68 in1005.1 mb 0.00 in0.0 mm 0.00 in0.0 mm 0.01 in0.3 mm
01:20 PM 69.4°F20.8°C 60.4°F15.8°C 73% 4.5 mph SE7.2 kmh SE 13.6 mph21.9 kmh 29.68 in1005.1 mb 0.00 in0.0 mm 0.00 in0.0 mm 0.01 in0.3 mm
01:30 PM 69.8°F21.0°C 60.4°F15.8°C 72% 6.0 mph SE9.7 kmh SE 12.1 mph19.5 kmh 29.68 in1005.1 mb 0.00 in0.0 mm 0.00 in0.0 mm 0.01 in0.3 mm
01:40 PM 69.8°F21.0°C 59.2°F15.1°C 69% 7.6 mph E12.2 kmh E 12.1 mph19.5 kmh 29.68 in1005.1 mb 0.00 in0.0 mm 0.00 in0.0 mm 0.01 in0.3 mm
01:50 PM 70.2°F21.2°C 59.1°F15.1°C 68% 7.6 mph ESE12.2 kmh ESE 12.1 mph19.5 kmh 29.68 in1005.1 mb 0.00 in0.0 mm 0.00 in0.0 mm 0.01 in0.3 mm
02:00 PM 70.2°F21.2°C 59.5°F15.3°C 69% 5.4 mph SE8.7 kmh SE 11.4 mph18.3 kmh 29.68 in1005.1 mb 0.00 in0.0 mm 0.00 in0.0 mm 0.01 in0.3 mm
02:10 PM 70.9°F21.6°C 59.8°F15.4°C 68% 7.6 mph SE12.2 kmh SE 10.7 mph17.2 kmh 29.68 in1005.1 mb 0.00 in0.0 mm 0.00 in0.0 mm 0.01 in0.3 mm
02:20 PM 70.7°F21.5°C 58.4°F14.7°C 65% 5.4 mph ESE8.7 kmh ESE 10.7 mph17.2 kmh 29.68 in1005.1 mb 0.00 in0.0 mm 0.00 in0.0 mm 0.01 in0.3 mm
02:30 PM 70.7°F21.5°C 59.6°F15.3°C 68% 3.1 mph SE5.0 kmh SE 10.7 mph17.2 kmh 29.68 in1005.1 mb 0.00 in0.0 mm 0.00 in0.0 mm 0.01 in0.3 mm
02:40 PM 70.7°F21.5°C 60.5°F15.8°C 70% 9.2 mph ESE14.8 kmh ESE 13.0 mph20.9 kmh 29.68 in1005.1 mb 0.00 in0.0 mm 0.00 in0.0 mm 0.01 in0.3 mm
02:50 PM 70.3°F21.3°C 59.3°F15.2°C 68% 3.8 mph E6.1 kmh E 13.0 mph20.9 kmh 29.68 in1005.1 mb 0.00 in0.0 mm 0.00 in0.0 mm 0.01 in0.3 mm
03:00 PM 71.6°F22.0°C 59.7°F15.4°C 66% 6.9 mph SE11.1 kmh SE 10.7 mph17.2 kmh 29.68 in1005.1 mb 0.00 in0.0 mm 0.00 in0.0 mm 0.01 in0.3 mm
03:10 PM 70.9°F21.6°C 59.8°F15.4°C 68% 4.5 mph SE7.2 kmh SE 11.4 mph18.3 kmh 29.67 in1004.7 mb 0.00 in0.0 mm 0.00 in0.0 mm 0.01 in0.3 mm
03:20 PM 71.4°F21.9°C 59.1°F15.1°C 65% 5.4 mph ESE8.7 kmh ESE 13.0 mph20.9 kmh 29.68 in1005.1 mb 0.00 in0.0 mm 0.00 in0.0 mm 0.01 in0.3 mm
03:30 PM 70.9°F21.6°C 58.1°F14.5°C 64% 6.0 mph SE9.7 kmh SE 15.2 mph24.5 kmh 29.67 in1004.7 mb 0.00 in0.0 mm 0.00 in0.0 mm 0.01 in0.3 mm
03:40 PM 71.1°F21.7°C 59.6°F15.3°C 67% 6.0 mph ESE9.7 kmh ESE 13.0 mph20.9 kmh 29.67 in1004.7 mb 0.00 in0.0 mm 0.00 in0.0 mm 0.01 in0.3 mm
03:50 PM 70.9°F21.6°C 59.0°F15.0°C 66% 9.8 mph SE15.8 kmh SE 13.6 mph21.9 kmh 29.68 in1005.1 mb 0.00 in0.0 mm 0.00 in0.0 mm 0.01 in0.3 mm
04:00 PM 70.7°F21.5°C 58.8°F14.9°C 66% 6.0 mph ESE9.7 kmh ESE 13.0 mph20.9 kmh 29.67 in1004.7 mb 0.00 in0.0 mm 0.00 in0.0 mm 0.01 in0.3 mm
04:10 PM 71.1°F21.7°C 58.3°F14.6°C 64% 10.7 mph SE17.2 kmh SE 13.0 mph20.9 kmh 29.67 in1004.7 mb 0.00 in0.0 mm 0.00 in0.0 mm 0.01 in0.3 mm
04:20 PM 71.8°F22.1°C 58.5°F14.7°C 63% 6.0 mph ESE9.7 kmh ESE 13.0 mph20.9 kmh 29.67 in1004.7 mb 0.00 in0.0 mm 0.00 in0.0 mm 0.01 in0.3 mm
04:30 PM 72.7°F22.6°C 58.0°F14.4°C 60% 6.0 mph SE9.7 kmh SE 10.7 mph17.2 kmh 29.67 in1004.7 mb 0.00 in0.0 mm 0.00 in0.0 mm 0.01 in0.3 mm
04:40 PM 72.1°F22.3°C 58.0°F14.4°C 61% 4.5 mph SE7.2 kmh SE 10.7 mph17.2 kmh 29.67 in1004.7 mb 0.00 in0.0 mm 0.00 in0.0 mm 0.01 in0.3 mm
04:50 PM 72.1°F22.3°C 56.6°F13.7°C 58% 6.0 mph ESE9.7 kmh ESE 9.2 mph14.8 kmh 29.67 in1004.7 mb 0.00 in0.0 mm 0.00 in0.0 mm 0.01 in0.3 mm
05:00 PM 72.9°F22.7°C 57.3°F14.1°C 58% 4.5 mph SE7.2 kmh SE 9.2 mph14.8 kmh 29.66 in1004.4 mb 0.00 in0.0 mm 0.00 in0.0 mm 0.01 in0.3 mm
05:10 PM 70.7°F21.5°C 57.5°F14.2°C 63% 6.0 mph S9.7 kmh S 12.1 mph19.5 kmh 29.66 in1004.4 mb 0.00 in0.0 mm 0.00 in0.0 mm 0.01 in0.3 mm
05:20 PM 70.3°F21.3°C 58.5°F14.7°C 66% 4.5 mph E7.2 kmh E 11.4 mph18.3 kmh 29.67 in1004.7 mb 0.00 in0.0 mm 0.00 in0.0 mm 0.01 in0.3 mm
05:30 PM 68.5°F20.3°C 59.2°F15.1°C 72% 4.5 mph ESE7.2 kmh ESE 9.8 mph15.8 kmh 29.67 in1004.7 mb 0.00 in0.0 mm 0.00 in0.0 mm 0.01 in0.3 mm
05:40 PM 69.4°F20.8°C 59.7°F15.4°C 71% 4.5 mph SE7.2 kmh SE 9.8 mph15.8 kmh 29.68 in1005.1 mb 0.00 in0.0 mm 0.00 in0.0 mm 0.01 in0.3 mm
05:50 PM 70.5°F21.4°C 59.9°F15.5°C 69% 2.2 mph SE3.5 kmh SE 7.6 mph12.2 kmh 29.68 in1005.1 mb 0.00 in0.0 mm 0.00 in0.0 mm 0.01 in0.3 mm
06:00 PM 73.4°F23.0°C 61.0°F16.1°C 65% 4.5 mph SE7.2 kmh SE 8.3 mph13.4 kmh 29.68 in1005.1 mb 0.00 in0.0 mm 0.00 in0.0 mm 0.01 in0.3 mm
06:10 PM 73.2°F22.9°C 59.9°F15.5°C 63% 3.1 mph ESE5.0 kmh ESE 6.9 mph11.1 kmh 29.68 in1005.1 mb 0.00 in0.0 mm 0.00 in0.0 mm 0.01 in0.3 mm
06:20 PM 73.8°F23.2°C 59.0°F15.0°C 60% 4.5 mph E7.2 kmh E 7.6 mph12.2 kmh 29.68 in1005.1 mb 0.00 in0.0 mm 0.00 in0.0 mm 0.01 in0.3 mm
06:30 PM 72.1°F22.3°C 58.9°F14.9°C 63% 3.8 mph E6.1 kmh E 9.2 mph14.8 kmh 29.68 in1005.1 mb 0.00 in0.0 mm 0.00 in0.0 mm 0.01 in0.3 mm
06:40 PM 70.0°F21.1°C 58.1°F14.5°C 66% 4.5 mph E7.2 kmh E 11.4 mph18.3 kmh 29.68 in1005.1 mb 0.00 in0.0 mm 0.00 in0.0 mm 0.01 in0.3 mm
06:50 PM 68.7°F20.4°C 58.6°F14.8°C 70% 6.0 mph E9.7 kmh E 9.8 mph15.8 kmh 29.69 in1005.4 mb 0.00 in0.0 mm 0.00 in0.0 mm 0.01 in0.3 mm
07:00 PM 68.0°F20.0°C 58.3°F14.6°C 71% 3.8 mph E6.1 kmh E 9.8 mph15.8 kmh 29.69 in1005.4 mb 0.00 in0.0 mm 0.00 in0.0 mm 0.01 in0.3 mm
07:10 PM 67.5°F19.7°C 58.5°F14.7°C 73% 3.8 mph E6.1 kmh E 8.3 mph13.4 kmh 29.69 in1005.4 mb 0.00 in0.0 mm 0.00 in0.0 mm 0.01 in0.3 mm
07:20 PM 67.1°F19.5°C 58.6°F14.8°C 74% 3.1 mph E5.0 kmh E 5.4 mph8.7 kmh 29.70 in1005.8 mb 0.00 in0.0 mm 0.00 in0.0 mm 0.01 in0.3 mm
07:30 PM 66.7°F19.3°C 58.6°F14.8°C 75% 1.6 mph NE2.6 kmh NE 4.5 mph7.2 kmh 29.71 in1006.1 mb 0.00 in0.0 mm 0.00 in0.0 mm 0.01 in0.3 mm
07:40 PM 66.2°F19.0°C 58.8°F14.9°C 77% 3.1 mph NE5.0 kmh NE 4.5 mph7.2 kmh 29.70 in1005.8 mb 0.00 in0.0 mm 0.00 in0.0 mm 0.01 in0.3 mm
07:50 PM 65.8°F18.8°C 58.4°F14.7°C 77% 3.8 mph ENE6.1 kmh ENE 6.9 mph11.1 kmh 29.71 in1006.1 mb 0.00 in0.0 mm 0.00 in0.0 mm 0.01 in0.3 mm
08:00 PM 65.8°F18.8°C 58.4°F14.7°C 77% 3.8 mph ENE6.1 kmh ENE 7.6 mph12.2 kmh 29.71 in1006.1 mb 0.00 in0.0 mm 0.00 in0.0 mm 0.01 in0.3 mm
08:10 PM 65.5°F18.6°C 58.1°F14.5°C 77% 1.6 mph ENE2.6 kmh ENE 6.0 mph9.7 kmh 29.71 in1006.1 mb 0.00 in0.0 mm 0.00 in0.0 mm 0.01 in0.3 mm
08:20 PM 64.6°F18.1°C 57.6°F14.2°C 78% 1.6 mph E2.6 kmh E 3.8 mph6.1 kmh 29.71 in1006.1 mb 0.00 in0.0 mm 0.00 in0.0 mm 0.01 in0.3 mm
08:30 PM 64.6°F18.1°C 57.6°F14.2°C 78% 2.2 mph ENE3.5 kmh ENE 3.8 mph6.1 kmh 29.71 in1006.1 mb 0.00 in0.0 mm 0.00 in0.0 mm 0.01 in0.3 mm
08:40 PM 64.2°F17.9°C 58.3°F14.6°C 81% 2.2 mph NE3.5 kmh NE 3.8 mph6.1 kmh 29.71 in1006.1 mb 0.00 in0.0 mm 0.00 in0.0 mm 0.01 in0.3 mm
08:50 PM 63.9°F17.7°C 57.9°F14.4°C 81% 1.6 mph NE2.6 kmh NE 3.8 mph6.1 kmh 29.72 in1006.4 mb 0.00 in0.0 mm 0.00 in0.0 mm 0.01 in0.3 mm
09:00 PM 63.7°F17.6°C 58.1°F14.5°C 82% 2.2 mph NE3.5 kmh NE 4.5 mph7.2 kmh 29.72 in1006.4 mb 0.00 in0.0 mm 0.00 in0.0 mm 0.01 in0.3 mm
09:10 PM 63.3°F17.4°C 57.7°F14.3°C 82% 1.6 mph NE2.6 kmh NE 3.8 mph6.1 kmh 29.72 in1006.4 mb 0.00 in0.0 mm 0.00 in0.0 mm 0.01 in0.3 mm
09:20 PM 63.0°F17.2°C 57.4°F14.1°C 82% 0.7 mph NE1.1 kmh NE 3.1 mph5.0 kmh 29.72 in1006.4 mb 0.00 in0.0 mm 0.00 in0.0 mm 0.01 in0.3 mm
09:30 PM 62.6°F17.0°C 57.4°F14.1°C 83% Calm Calm 1.6 mph2.6 kmh 29.72 in1006.4 mb 0.00 in0.0 mm 0.00 in0.0 mm 0.01 in0.3 mm
09:40 PM 62.2°F16.8°C 57.4°F14.1°C 84% Calm Calm -- 29.72 in1006.4 mb 0.00 in0.0 mm 0.00 in0.0 mm 0.01 in0.3 mm
09:50 PM 61.9°F16.6°C 57.3°F14.1°C 85% Calm Calm -- 29.72 in1006.4 mb 0.00 in0.0 mm 0.00 in0.0 mm 0.01 in0.3 mm
10:00 PM 61.7°F16.5°C 58.4°F14.7°C 89% 1.6 mph NW2.6 kmh NW 3.1 mph5.0 kmh 29.72 in1006.4 mb 0.00 in0.0 mm 0.00 in0.0 mm 0.01 in0.3 mm
10:10 PM 61.3°F16.3°C 58.4°F14.7°C 90% Calm Calm 3.1 mph5.0 kmh 29.72 in1006.4 mb 0.00 in0.0 mm 0.00 in0.0 mm 0.01 in0.3 mm
10:20 PM 61.0°F16.1°C 58.7°F14.8°C 92% Calm Calm 2.2 mph3.5 kmh 29.73 in1006.8 mb 0.00 in0.0 mm 0.00 in0.0 mm 0.01 in0.3 mm
10:30 PM 60.8°F16.0°C 58.5°F14.7°C 92% Calm Calm -- 29.73 in1006.8 mb 0.00 in0.0 mm 0.00 in0.0 mm 0.01 in0.3 mm
10:40 PM 60.4°F15.8°C 58.4°F14.7°C 93% Calm Calm -- 29.73 in1006.8 mb 0.00 in0.0 mm 0.00 in0.0 mm 0.01 in0.3 mm
10:50 PM 60.3°F15.7°C 58.2°F14.6°C 93% Calm Calm -- 29.73 in1006.8 mb 0.00 in0.0 mm 0.00 in0.0 mm 0.01 in0.3 mm
11:00 PM 60.6°F15.9°C 58.9°F14.9°C 94% Calm Calm -- 29.73 in1006.8 mb 0.00 in0.0 mm 0.00 in0.0 mm 0.01 in0.3 mm
11:10 PM 60.4°F15.8°C 58.7°F14.8°C 94% Calm Calm -- 29.73 in1006.8 mb 0.00 in0.0 mm 0.00 in0.0 mm 0.01 in0.3 mm
11:20 PM 60.4°F15.8°C 58.7°F14.8°C 94% Calm Calm -- 29.73 in1006.8 mb 0.00 in0.0 mm 0.00 in0.0 mm 0.01 in0.3 mm
11:30 PM 60.4°F15.8°C 58.7°F14.8°C 94% Calm Calm -- 29.73 in1006.8 mb 0.00 in0.0 mm 0.00 in0.0 mm 0.01 in0.3 mm
11:40 PM 60.3°F15.7°C 58.5°F14.7°C 94% Calm Calm 2.2 mph3.5 kmh 29.73 in1006.8 mb 0.00 in0.0 mm 0.00 in0.0 mm 0.01 in0.3 mm
11:50 PM 60.1°F15.6°C 58.4°F14.7°C 94% Calm Calm 2.2 mph3.5 kmh 29.73 in1006.8 mb 0.00 in0.0 mm 0.00 in0.0 mm 0.01 in0.3 mm